createdAt,value
2023-03-12T00:01:30.341Z,-0.80
2023-03-12T00:03:57.624Z,-0.80
2023-03-12T00:06:25.013Z,-0.80
2023-03-12T00:08:52.256Z,-0.80
2023-03-12T00:11:21.736Z,-0.90
2023-03-12T00:13:57.314Z,-0.80
2023-03-12T00:16:25.421Z,-0.80
2023-03-12T00:18:54.550Z,-0.80
2023-03-12T00:21:22.447Z,-0.80
2023-03-12T00:23:50.622Z,-0.80
2023-03-12T00:26:19.765Z,-0.80
2023-03-12T00:28:49.088Z,-0.80
2023-03-12T00:31:22.750Z,-0.80
2023-03-12T00:33:50.214Z,-0.90
2023-03-12T00:36:19.140Z,-0.80
2023-03-12T00:38:45.950Z,-0.90
2023-03-12T00:41:13.237Z,-0.80
2023-03-12T00:43:40.529Z,-0.80
2023-03-12T00:46:08.097Z,-0.60
2023-03-12T00:48:34.915Z,-0.70
2023-03-12T00:51:02.034Z,-0.60
2023-03-12T00:53:30.050Z,-0.80
2023-03-12T00:55:56.915Z,-0.80
2023-03-12T00:58:24.230Z,-0.70
2023-03-12T01:00:52.762Z,-0.90
2023-03-12T01:03:19.803Z,-0.90
2023-03-12T01:05:47.059Z,-0.90
2023-03-12T01:08:13.800Z,-0.80
2023-03-12T01:10:44.133Z,-0.70
2023-03-12T01:13:11.248Z,-0.70
2023-03-12T01:15:38.931Z,-0.60
2023-03-12T01:18:06.215Z,-0.80
2023-03-12T01:20:35.670Z,-0.70
2023-03-12T01:23:02.459Z,-0.80
2023-03-12T01:25:29.317Z,-0.70
2023-03-12T01:27:56.958Z,-0.80
2023-03-12T01:30:23.960Z,-0.80
2023-03-12T01:32:52.802Z,-0.90
2023-03-12T01:35:19.682Z,-1.00
2023-03-12T01:37:46.976Z,-0.90
2023-03-12T01:40:22.358Z,-0.90
2023-03-12T01:42:54.476Z,-1.00
2023-03-12T01:45:55.945Z,-0.90
2023-03-12T01:48:23.541Z,-0.80
2023-03-12T01:50:50.821Z,-0.80
2023-03-12T01:53:18.043Z,-0.80
2023-03-12T01:55:46.318Z,-0.70
2023-03-12T01:58:15.591Z,-0.70
2023-03-12T02:00:43.004Z,-0.40
2023-03-12T02:03:10.801Z,-0.80
2023-03-12T02:06:00.672Z,-0.70
2023-03-12T02:08:28.736Z,-0.90
2023-03-12T02:10:55.560Z,-0.90
2023-03-12T02:13:23.981Z,-0.80
2023-03-12T02:15:51.959Z,-0.80
2023-03-12T02:18:21.501Z,-0.80
2023-03-12T02:21:06.857Z,-0.80
2023-03-12T02:24:01.163Z,-1.00
2023-03-12T02:26:29.913Z,-0.90
2023-03-12T02:28:59.666Z,-0.80
2023-03-12T02:31:31.674Z,-0.90
2023-03-12T02:34:03.294Z,-0.80
2023-03-12T02:36:30.097Z,-0.90
2023-03-12T02:38:57.627Z,-0.80
2023-03-12T02:41:24.420Z,-0.80
2023-03-12T02:43:54.796Z,-0.70
2023-03-12T02:46:21.983Z,-0.70
2023-03-12T02:48:48.887Z,-0.80
2023-03-12T02:51:16.099Z,-0.80
2023-03-12T02:53:42.927Z,-0.70
2023-03-12T02:56:10.090Z,-0.70
2023-03-12T02:58:37.592Z,-0.70
2023-03-12T03:01:05.080Z,-0.70
2023-03-12T03:03:31.841Z,-0.80
2023-03-12T03:08:30.052Z,-0.70
2023-03-12T03:10:56.893Z,-0.60
2023-03-12T03:13:24.104Z,-0.40
2023-03-12T03:15:51.010Z,-0.70
2023-03-12T03:18:17.855Z,-0.80
2023-03-12T03:20:45.673Z,-0.70
2023-03-12T03:23:12.559Z,-0.80
2023-03-12T03:25:39.738Z,-0.80
2023-03-12T03:28:10.353Z,-0.80
2023-03-12T03:30:37.658Z,-0.80
2023-03-12T03:33:06.160Z,-0.70
2023-03-12T03:35:41.339Z,0.10
2023-03-12T03:38:12.920Z,-0.80
2023-03-12T03:40:40.482Z,-0.70
2023-03-12T03:43:07.455Z,-0.10
2023-03-12T03:45:35.010Z,-0.70
2023-03-12T03:48:01.986Z,-0.70
2023-03-12T03:50:30.028Z,-0.80
2023-03-12T03:52:57.660Z,-0.70
2023-03-12T03:55:24.684Z,-0.70
2023-03-12T03:57:51.614Z,-0.80
2023-03-12T04:00:19.552Z,-0.80
2023-03-12T04:02:46.543Z,-0.80
2023-03-12T04:05:16.680Z,-0.90
2023-03-12T04:07:45.023Z,-0.60
2023-03-12T04:10:13.617Z,-0.60
2023-03-12T04:12:41.347Z,-0.60
2023-03-12T04:15:08.824Z,-0.60
2023-03-12T04:17:36.185Z,-0.60
2023-03-12T04:20:07.409Z,-0.50
2023-03-12T04:22:36.727Z,-0.40
2023-03-12T04:25:04.686Z,-0.30
2023-03-12T04:27:32.462Z,-0.10
2023-03-12T04:29:59.642Z,0.10
2023-03-12T04:32:26.864Z,0.00
2023-03-12T04:34:54.844Z,0.10
2023-03-12T04:37:25.047Z,0.30
2023-03-12T04:39:52.113Z,0.00
2023-03-12T04:42:19.715Z,0.30
2023-03-12T04:44:46.593Z,0.20
2023-03-12T04:47:13.979Z,0.10
2023-03-12T04:49:41.093Z,0.10
2023-03-12T06:51:17.813Z,5.60
2023-03-12T06:53:46.089Z,5.90
2023-03-12T06:56:13.730Z,6.30
2023-03-12T06:58:43.194Z,6.50
2023-03-12T07:01:10.914Z,6.50
2023-03-12T07:03:38.644Z,6.50
2023-03-12T07:06:12.724Z,6.50
2023-03-12T07:08:46.553Z,6.80
2023-03-12T07:11:17.246Z,6.60
2023-03-12T07:13:45.002Z,7.40
2023-03-12T07:16:12.985Z,7.40
2023-03-12T07:18:41.441Z,7.40
2023-03-12T07:21:08.730Z,7.70
2023-03-12T07:23:38.307Z,8.00
2023-03-12T07:26:06.042Z,7.90
2023-03-12T07:28:33.554Z,7.90
2023-03-12T07:31:05.469Z,7.90
2023-03-12T07:33:34.531Z,8.20
2023-03-12T07:36:02.019Z,7.40
2023-03-12T07:38:29.269Z,6.80
2023-03-12T07:40:58.480Z,6.10
2023-03-12T07:43:26.420Z,5.70
2023-03-12T07:45:53.401Z,5.50
2023-03-12T07:48:53.109Z,5.20
2023-03-12T07:51:22.242Z,5.10
2023-03-12T07:53:55.180Z,4.90
2023-03-12T07:56:22.814Z,4.70
2023-03-12T07:58:49.693Z,4.40
2023-03-12T08:01:16.639Z,4.30
2023-03-12T08:03:43.751Z,4.30
2023-03-12T08:09:16.180Z,4.50
2023-03-12T08:11:42.976Z,4.50
2023-03-12T08:14:09.797Z,4.50
2023-03-12T08:16:36.593Z,4.70
2023-03-12T08:19:03.423Z,4.70
2023-03-12T08:21:30.581Z,4.60
2023-03-12T08:23:57.295Z,4.50
2023-03-12T08:26:24.443Z,4.70
2023-03-12T08:28:51.207Z,4.80
2023-03-12T08:31:22.901Z,5.00
2023-03-12T08:33:49.731Z,5.40
2023-03-12T08:36:21.264Z,5.70
2023-03-12T08:38:49.106Z,5.80
2023-03-12T08:41:19.601Z,5.90
2023-03-12T08:43:47.432Z,5.90
2023-03-12T08:46:14.510Z,5.60
2023-03-12T08:48:41.749Z,5.70
2023-03-12T08:51:08.940Z,6.20
2023-03-12T08:53:38.085Z,6.30
2023-03-12T08:56:05.937Z,6.60
2023-03-12T08:58:32.888Z,6.60
2023-03-12T09:00:59.739Z,6.30
2023-03-12T09:03:27.070Z,6.30
2023-03-12T09:06:10.808Z,6.20
2023-03-12T09:08:37.545Z,6.50
2023-03-12T09:11:04.379Z,6.40
2023-03-12T09:13:54.290Z,6.70
2023-03-12T09:16:18.166Z,6.80
2023-03-12T09:18:44.937Z,7.10
2023-03-12T09:21:12.032Z,7.50
2023-03-12T09:23:38.747Z,7.90
2023-03-12T09:26:05.505Z,7.70
2023-03-12T09:28:32.821Z,7.40
2023-03-12T09:31:02.510Z,7.50
2023-03-12T09:33:29.314Z,7.50
2023-03-12T09:35:58.289Z,7.30
2023-03-12T09:38:25.912Z,7.00
2023-03-12T09:40:53.611Z,7.10
2023-03-12T09:43:30.293Z,6.90
2023-03-12T09:45:57.780Z,7.00
2023-03-12T09:48:37.456Z,7.20
2023-03-12T09:51:20.292Z,6.90
2023-03-12T09:53:52.429Z,6.70
2023-03-12T09:56:20.898Z,6.50
2023-03-12T09:58:49.302Z,6.30
2023-03-12T10:01:30.178Z,6.20
2023-03-12T10:04:21.927Z,6.20
2023-03-12T10:07:15.966Z,6.40
2023-03-12T10:10:07.671Z,6.50
2023-03-12T10:12:54.783Z,6.30
2023-03-12T10:15:43.782Z,6.20
2023-03-12T10:18:16.436Z,6.00
2023-03-12T10:21:07.934Z,5.90
2023-03-12T10:24:06.994Z,5.90
2023-03-12T10:26:44.082Z,6.00
2023-03-12T10:29:28.671Z,6.30
2023-03-12T10:32:13.730Z,6.50
2023-03-12T10:34:47.383Z,6.60
2023-03-12T10:37:28.394Z,6.60
2023-03-12T10:39:55.970Z,6.60
2023-03-12T10:42:25.492Z,6.40
2023-03-12T10:44:56.231Z,6.40
2023-03-12T10:47:35.854Z,6.40
2023-03-12T10:50:22.708Z,6.60
2023-03-12T10:52:53.162Z,6.90
2023-03-12T10:55:30.706Z,7.20
2023-03-12T10:57:58.105Z,7.20
2023-03-12T11:00:30.316Z,7.10
2023-03-12T11:03:07.348Z,6.90
2023-03-12T11:05:35.533Z,6.80
2023-03-12T11:08:04.289Z,6.70
2023-03-12T11:10:46.969Z,6.70
2023-03-12T11:13:38.176Z,6.60
2023-03-12T11:16:17.406Z,6.50
2023-03-12T11:18:59.984Z,6.80
2023-03-12T11:21:27.265Z,6.70
2023-03-12T11:23:57.129Z,7.00
2023-03-12T11:26:42.029Z,6.80
2023-03-12T11:29:33.563Z,7.00
2023-03-12T11:32:15.302Z,7.10
2023-03-12T11:34:43.010Z,7.20
2023-03-12T11:37:15.401Z,7.40
2023-03-12T11:40:10.430Z,7.40
2023-03-12T11:42:52.313Z,7.10
2023-03-12T11:45:40.445Z,7.20
2023-03-12T11:48:29.078Z,7.30
2023-03-12T11:51:30.857Z,7.70
2023-03-12T11:54:17.808Z,8.10
2023-03-12T11:56:47.388Z,8.20
2023-03-12T11:59:38.801Z,8.10
2023-03-12T12:02:39.068Z,8.30
2023-03-12T12:05:30.642Z,8.10
2023-03-12T12:08:23.585Z,8.10
2023-03-12T12:11:14.610Z,8.40
2023-03-12T12:14:13.553Z,8.80
2023-03-12T12:16:58.567Z,8.80
2023-03-12T12:19:25.292Z,9.10
2023-03-12T12:22:10.788Z,9.10
2023-03-12T12:24:43.000Z,8.90
2023-03-12T12:27:09.770Z,8.90
2023-03-12T12:29:49.802Z,8.90
2023-03-12T12:32:26.816Z,9.00
2023-03-12T12:35:20.965Z,9.00
2023-03-12T12:38:03.109Z,9.00
2023-03-12T12:40:38.902Z,9.10
2023-03-12T12:43:28.168Z,9.40
2023-03-12T12:45:59.757Z,9.50
2023-03-12T12:48:40.016Z,9.20
2023-03-12T12:51:09.104Z,8.70
2023-03-12T12:53:54.585Z,8.60
2023-03-12T12:56:27.459Z,8.70
2023-03-12T12:59:25.413Z,9.00
2023-03-12T13:01:57.719Z,9.30
2023-03-12T13:04:37.058Z,9.40
2023-03-12T13:07:13.319Z,9.60
2023-03-12T13:09:52.301Z,9.50
2023-03-12T13:12:19.277Z,9.10
2023-03-12T13:14:46.989Z,9.10
2023-03-12T13:17:35.083Z,9.10
2023-03-12T13:20:05.993Z,9.20
2023-03-12T13:22:32.719Z,9.60
2023-03-12T13:25:21.803Z,9.70
2023-03-12T13:27:58.462Z,9.90
2023-03-12T13:30:47.690Z,10.20
2023-03-12T13:33:18.215Z,10.30
2023-03-12T13:36:04.179Z,10.30
2023-03-12T13:38:37.154Z,10.50
2023-03-12T13:41:06.368Z,10.30
2023-03-12T13:43:47.349Z,10.10
2023-03-12T13:46:16.829Z,10.00
2023-03-12T13:48:48.974Z,10.00
2023-03-12T13:51:19.079Z,10.00
2023-03-12T13:53:55.445Z,9.70
2023-03-12T13:56:29.649Z,9.80
2023-03-12T13:59:02.668Z,10.00
2023-03-12T14:01:43.142Z,10.10
2023-03-12T14:04:20.608Z,10.20
2023-03-12T14:07:02.529Z,10.00
2023-03-12T14:09:48.670Z,10.00
2023-03-12T14:12:54.614Z,9.90
2023-03-12T14:15:40.173Z,10.10
2023-03-12T14:18:20.270Z,9.70
2023-03-12T14:20:57.161Z,9.70
2023-03-12T14:23:28.466Z,9.60
2023-03-12T14:26:02.888Z,9.40
2023-03-12T14:28:36.324Z,9.30
2023-03-12T14:31:09.314Z,9.40
2023-03-12T14:34:04.767Z,9.30
2023-03-12T14:36:43.084Z,9.50
2023-03-12T14:39:28.278Z,9.50
2023-03-12T14:42:06.796Z,9.40
2023-03-12T14:44:37.080Z,9.20
2023-03-12T14:47:12.994Z,9.20
2023-03-12T14:49:48.278Z,9.00
2023-03-12T14:52:22.421Z,8.80
2023-03-12T14:54:59.217Z,8.70
2023-03-12T14:57:26.351Z,8.70
2023-03-12T14:59:59.031Z,8.50
2023-03-12T15:02:27.734Z,8.40
2023-03-12T15:04:57.938Z,8.50
2023-03-12T15:07:39.527Z,8.40
2023-03-12T15:10:22.634Z,8.40
2023-03-12T15:12:50.720Z,8.30
2023-03-12T15:15:28.020Z,8.30
2023-03-12T15:17:55.350Z,8.20
2023-03-12T15:20:24.264Z,8.20
2023-03-12T15:22:53.035Z,8.20
2023-03-12T15:25:31.735Z,7.90
2023-03-12T15:28:10.740Z,7.80
2023-03-12T15:30:39.480Z,7.60
2023-03-12T15:33:12.815Z,7.40
2023-03-12T15:36:02.246Z,7.60
2023-03-12T15:38:31.684Z,7.70
2023-03-12T15:41:07.441Z,7.70
2023-03-12T15:43:34.364Z,7.50
2023-03-12T15:46:03.800Z,7.20
2023-03-12T15:48:41.722Z,7.30
2023-03-12T15:51:28.074Z,7.30
2023-03-12T15:54:03.076Z,7.10
2023-03-12T15:56:33.695Z,6.90
2023-03-12T15:59:19.924Z,6.90
2023-03-12T16:01:53.015Z,6.80
2023-03-12T16:04:21.505Z,6.70
2023-03-12T16:07:02.964Z,6.70
2023-03-12T16:09:33.795Z,6.50
2023-03-12T16:12:00.685Z,6.30
2023-03-12T16:14:33.255Z,6.20
2023-03-12T16:17:03.257Z,6.10
2023-03-12T16:19:35.574Z,6.00
2023-03-12T16:22:02.872Z,6.00
2023-03-12T16:24:29.683Z,6.00
2023-03-12T16:26:59.047Z,6.10
2023-03-12T16:29:37.609Z,6.30
2023-03-12T16:32:12.059Z,6.20
2023-03-12T16:34:39.611Z,6.00
2023-03-12T16:37:09.453Z,6.00
2023-03-12T16:39:36.620Z,6.20
2023-03-12T16:42:20.472Z,6.00
2023-03-12T16:44:47.443Z,5.90
2023-03-12T16:47:14.912Z,5.80
2023-03-12T16:49:43.280Z,5.80
2023-03-12T16:52:22.886Z,5.70
2023-03-12T16:54:51.706Z,5.70
2023-03-12T16:57:33.079Z,5.70
2023-03-12T17:00:01.983Z,5.60
2023-03-12T17:02:29.886Z,5.70
2023-03-12T17:04:56.967Z,5.70
2023-03-12T17:07:24.279Z,5.70
2023-03-12T17:09:51.460Z,5.70
2023-03-12T17:12:28.981Z,5.80
2023-03-12T17:15:00.009Z,5.70
2023-03-12T17:17:26.810Z,5.70
2023-03-12T17:19:53.996Z,5.60
2023-03-12T17:22:22.781Z,5.60
2023-03-12T17:24:49.587Z,5.50
2023-03-12T17:27:16.342Z,5.60
2023-03-12T17:29:43.081Z,5.60
2023-03-12T17:32:09.951Z,5.50
2023-03-12T17:34:36.842Z,5.50
2023-03-12T17:37:03.821Z,5.50
2023-03-12T17:39:30.770Z,5.50
2023-03-12T17:41:57.940Z,5.40
2023-03-12T17:44:25.628Z,5.70
2023-03-12T17:46:59.718Z,5.50
2023-03-12T17:49:31.262Z,5.60
2023-03-12T17:51:58.447Z,5.70
2023-03-12T17:54:25.203Z,5.80
2023-03-12T17:56:52.326Z,5.90
2023-03-12T17:59:19.333Z,5.80
2023-03-12T18:01:46.099Z,5.80
2023-03-12T18:04:22.919Z,5.70
2023-03-12T18:06:52.132Z,5.70
2023-03-12T18:09:19.324Z,5.70
2023-03-12T18:11:46.040Z,5.70
2023-03-12T18:14:13.437Z,5.80
2023-03-12T18:16:44.676Z,5.70
2023-03-12T18:19:11.797Z,5.70
2023-03-12T18:21:38.647Z,5.80
2023-03-12T18:24:14.155Z,5.70
2023-03-12T18:26:42.020Z,5.70
2023-03-12T18:29:08.823Z,5.60
2023-03-12T18:31:37.908Z,5.50
2023-03-12T18:34:04.766Z,5.50
2023-03-12T18:36:34.582Z,5.50
2023-03-12T18:39:07.668Z,5.50
2023-03-12T18:41:34.871Z,5.70
2023-03-12T18:44:14.094Z,5.60
2023-03-12T18:46:42.022Z,5.60
2023-03-12T18:49:10.136Z,5.70
2023-03-12T18:51:37.319Z,5.80
2023-03-12T18:54:04.250Z,5.80
2023-03-12T18:56:31.049Z,5.80
2023-03-12T18:58:57.850Z,5.70
2023-03-12T19:01:25.249Z,5.70
2023-03-12T19:03:52.306Z,5.50
2023-03-12T19:06:19.160Z,5.60
2023-03-12T19:08:46.062Z,5.60
2023-03-12T19:11:15.783Z,5.50
2023-03-12T19:13:43.035Z,5.50
2023-03-12T19:16:12.068Z,5.60
2023-03-12T19:18:39.560Z,5.60
2023-03-12T19:21:10.040Z,5.70
2023-03-12T19:23:37.295Z,5.90
2023-03-12T19:26:07.587Z,6.00
2023-03-12T19:28:34.506Z,5.80
2023-03-12T19:31:03.896Z,5.60
2023-03-12T19:33:31.352Z,5.60
2023-03-12T19:36:09.898Z,5.50
2023-03-12T19:38:39.935Z,5.50
2023-03-12T19:41:09.016Z,5.60
2023-03-12T19:43:37.193Z,5.60
2023-03-12T19:46:04.752Z,5.50
2023-03-12T19:48:32.125Z,5.40
2023-03-12T19:51:06.195Z,5.40
2023-03-12T19:53:36.672Z,5.40
2023-03-12T19:56:04.155Z,5.30
2023-03-12T19:58:31.817Z,5.40
2023-03-12T20:01:00.250Z,5.30
2023-03-12T20:03:28.640Z,5.40
2023-03-12T20:05:59.643Z,5.40
2023-03-12T20:08:32.563Z,5.40
2023-03-12T20:11:08.549Z,5.60
2023-03-12T20:13:37.981Z,5.70
2023-03-12T20:16:12.078Z,5.70
2023-03-12T20:18:38.825Z,5.70
2023-03-12T20:21:06.033Z,5.60
2023-03-12T20:23:32.888Z,5.70
2023-03-12T20:26:11.814Z,5.70
2023-03-12T20:28:41.422Z,5.70
2023-03-12T20:31:14.056Z,5.90
2023-03-12T20:33:41.929Z,5.90
2023-03-12T20:36:13.950Z,5.80
2023-03-12T20:38:41.577Z,5.90
2023-03-12T20:41:24.850Z,5.90
2023-03-12T20:43:56.190Z,6.00
2023-03-12T20:46:23.722Z,6.10
2023-03-12T20:48:51.105Z,6.20
2023-03-12T20:51:18.394Z,6.30
2023-03-12T20:53:45.677Z,6.10
2023-03-12T20:56:12.866Z,6.10
2023-03-12T20:58:40.208Z,6.10
2023-03-12T21:01:07.423Z,6.10
2023-03-12T21:03:34.284Z,6.20
2023-03-12T21:06:02.664Z,6.10
2023-03-12T21:08:30.149Z,6.00
2023-03-12T21:10:56.979Z,5.50
2023-03-12T21:13:24.944Z,5.60
2023-03-12T21:15:52.631Z,5.60
2023-03-12T21:18:20.633Z,5.70
2023-03-12T21:20:47.936Z,6.00
2023-03-12T21:23:15.102Z,6.00
2023-03-12T21:25:42.141Z,5.90
2023-03-12T21:28:10.420Z,6.00
2023-03-12T21:30:37.841Z,6.00
2023-03-12T21:33:05.046Z,6.10
2023-03-12T21:35:32.321Z,6.00
2023-03-12T21:37:59.662Z,6.10
2023-03-12T21:40:26.612Z,6.10
2023-03-12T21:42:53.347Z,6.00
2023-03-12T21:45:20.778Z,6.00
2023-03-12T21:47:48.163Z,6.00
2023-03-12T21:50:16.360Z,6.20
2023-03-12T21:52:48.987Z,6.10
2023-03-12T21:55:17.298Z,6.20
2023-03-12T21:57:54.322Z,6.20
2023-03-12T22:00:21.473Z,6.20
2023-03-12T22:02:56.260Z,6.00
2023-03-12T22:05:23.421Z,6.00
2023-03-12T22:07:50.592Z,6.00
2023-03-12T22:10:17.491Z,6.10
2023-03-12T22:12:44.271Z,6.10
2023-03-12T22:15:11.217Z,5.90
2023-03-12T22:17:37.953Z,6.00
2023-03-12T22:20:08.124Z,6.30
2023-03-12T22:22:35.322Z,6.00
2023-03-12T22:25:02.114Z,6.10
2023-03-12T22:27:29.265Z,6.00
2023-03-12T22:29:57.812Z,6.00
2023-03-12T22:32:25.678Z,6.20
2023-03-12T22:34:52.484Z,6.30
2023-03-12T22:37:19.285Z,6.20
2023-03-12T22:39:46.056Z,6.20
2023-03-12T22:42:12.825Z,6.10
2023-03-12T22:44:42.374Z,6.20
2023-03-12T22:47:09.748Z,6.20
2023-03-12T22:49:36.455Z,6.20
2023-03-12T22:52:03.325Z,6.20
2023-03-12T22:54:30.069Z,6.00
2023-03-12T22:56:56.832Z,6.00
2023-03-12T22:59:23.584Z,5.80
2023-03-12T23:01:50.714Z,6.00
2023-03-12T23:04:17.513Z,6.00
2023-03-12T23:06:45.480Z,6.10
2023-03-12T23:09:12.255Z,6.30
2023-03-12T23:11:41.446Z,6.30
2023-03-12T23:14:09.291Z,6.30
2023-03-12T23:16:36.095Z,6.30
2023-03-12T23:19:02.929Z,6.30
2023-03-12T23:21:31.278Z,6.50
2023-03-12T23:24:00.222Z,6.40
2023-03-12T23:26:28.528Z,6.40
2023-03-12T23:28:56.266Z,6.40
2023-03-12T23:31:23.982Z,6.40
2023-03-12T23:33:51.165Z,6.50
2023-03-12T23:36:20.897Z,6.40
2023-03-12T23:38:49.551Z,6.30
2023-03-12T23:41:20.390Z,6.30
2023-03-12T23:43:47.526Z,6.20
2023-03-12T23:46:17.461Z,6.30
2023-03-12T23:48:48.286Z,6.40
2023-03-12T23:51:20.873Z,6.60
2023-03-12T23:53:50.357Z,6.60
2023-03-12T23:56:24.148Z,6.60
2023-03-12T23:58:51.538Z,6.60
